createdAt,value
2017-10-02T00:03:19.778Z,14.8
2017-10-02T00:13:33.852Z,14.8
2017-10-02T00:23:47.279Z,14.9
2017-10-02T00:34:00.461Z,14.7
2017-10-02T00:44:14.832Z,14.9
2017-10-02T00:54:28.943Z,14.9
2017-10-02T01:04:42.500Z,14.9
2017-10-02T01:14:52.768Z,14.9
2017-10-02T01:25:06.869Z,15
2017-10-02T01:35:21.251Z,15.2
2017-10-02T01:45:35.856Z,15.1
2017-10-02T01:55:49.350Z,14.8
2017-10-02T02:06:03.473Z,14.4
2017-10-02T02:16:16.713Z,14.1
2017-10-02T02:26:31.003Z,13.9
2017-10-02T02:36:45.895Z,13.8
2017-10-02T02:46:59.767Z,13.9
2017-10-02T02:57:13.369Z,13.8
2017-10-02T03:07:27.552Z,13.8
2017-10-02T03:17:42.099Z,13.8
2017-10-02T03:27:52.376Z,13.8
2017-10-02T03:38:05.769Z,13.7
2017-10-02T03:48:20.138Z,13.5
2017-10-02T03:58:33.215Z,13.5
2017-10-02T04:08:46.836Z,13.6
2017-10-02T04:19:00.858Z,13.5
2017-10-02T04:29:15.497Z,13.4
2017-10-02T04:39:29.628Z,13.5
2017-10-02T04:49:43.284Z,13.6
2017-10-02T04:59:57.257Z,13.8
2017-10-02T05:10:10.589Z,13.8
2017-10-02T05:20:24.700Z,13.9
2017-10-02T05:30:39.139Z,14
2017-10-02T05:40:49.395Z,14.3
2017-10-02T06:01:17.419Z,14.3
2017-10-02T06:11:30.680Z,14.4
2017-10-02T06:21:44.130Z,14.5
2017-10-02T06:31:59.132Z,14.6
2017-10-02T06:42:14.078Z,14.5
2017-10-02T06:52:27.952Z,14.6
2017-10-02T07:02:41.595Z,14.7
2017-10-02T07:12:54.789Z,14.7
2017-10-02T07:23:08.559Z,14.8
2017-10-02T07:33:21.923Z,14.9
2017-10-02T07:43:37.019Z,15
2017-10-02T07:53:47.287Z,15.1
2017-10-02T08:04:00.627Z,15.3
2017-10-02T08:14:15.266Z,15.5
2017-10-02T08:24:29.048Z,15.7
2017-10-02T08:34:43.533Z,16
2017-10-02T08:44:57.773Z,16.3
2017-10-02T08:55:11.086Z,16.3
2017-10-02T09:05:24.215Z,16.3
2017-10-02T09:15:37.889Z,16.7
2017-10-02T09:25:51.620Z,16.4
2017-10-02T09:36:05.863Z,17.2
2017-10-02T09:46:20.053Z,17.3
2017-10-02T09:56:34.724Z,18
2017-10-02T10:06:45.000Z,17.8
2017-10-02T10:17:00.187Z,17.7
2017-10-02T10:27:15.036Z,18.3
2017-10-02T10:37:29.865Z,18.5
2017-10-02T10:47:43.380Z,19.2
2017-10-02T10:57:57.505Z,19.1
2017-10-02T11:08:11.731Z,18.7
2017-10-02T11:18:24.997Z,19.2
2017-10-02T11:28:39.285Z,19.6
2017-10-02T11:38:53.705Z,19.1
2017-10-02T11:49:07.610Z,18.4
2017-10-02T11:59:20.681Z,18.1
2017-10-02T12:09:34.564Z,17.9
2017-10-02T12:19:44.904Z,19.3
2017-10-02T12:29:59.936Z,20.7
2017-10-02T12:40:14.448Z,20.8
2017-10-02T12:50:28.288Z,20.9
2017-10-02T13:00:43.428Z,20.2
2017-10-02T13:10:56.841Z,20.2
2017-10-02T13:21:11.076Z,20.1
2017-10-02T13:31:25.252Z,19
2017-10-02T13:41:39.531Z,18.9
2017-10-02T13:51:53.342Z,19.1
2017-10-02T14:02:07.401Z,19.2
2017-10-02T14:12:21.131Z,19.4
2017-10-02T14:22:34.431Z,18.8
2017-10-02T14:32:44.823Z,19.9
2017-10-02T14:42:59.205Z,18.7
2017-10-02T14:53:13.191Z,18.4
2017-10-02T15:03:27.689Z,18.9
2017-10-02T15:13:42.539Z,18.9
2017-10-02T15:23:56.598Z,18.5
2017-10-02T15:34:11.432Z,18.4
2017-10-02T15:44:26.196Z,18.1
2017-10-02T15:54:41.184Z,17.8
2017-10-02T16:04:55.399Z,17.7
2017-10-02T16:15:09.703Z,17.6
2017-10-02T16:25:22.851Z,17.4
2017-10-02T16:35:36.404Z,17.1
2017-10-02T16:45:46.683Z,16.9
2017-10-02T16:56:00.106Z,16.8
2017-10-02T17:06:13.773Z,16.4
2017-10-02T17:16:27.187Z,16.4
2017-10-02T17:26:41.384Z,16.3
2017-10-02T17:36:56.244Z,16.1
2017-10-02T17:47:09.413Z,16.1
2017-10-02T17:57:23.210Z,16.2
2017-10-02T18:07:36.994Z,16.1
2017-10-02T18:17:50.867Z,16
2017-10-02T18:28:04.366Z,16
2017-10-02T18:38:17.572Z,15.6
2017-10-02T18:48:30.805Z,15.6
2017-10-02T18:58:41.070Z,15.6
2017-10-02T19:08:54.494Z,15.5
2017-10-02T19:19:08.996Z,15.4
2017-10-02T19:29:23.875Z,15.2
2017-10-02T19:39:37.164Z,15.1
2017-10-02T19:49:51.059Z,15.1
2017-10-02T20:00:05.799Z,15.2
2017-10-02T20:10:18.927Z,15
2017-10-02T20:20:34.108Z,15
2017-10-02T20:30:47.118Z,15
2017-10-02T20:41:00.364Z,14.4
2017-10-02T20:51:15.383Z,13.8
2017-10-02T21:01:30.214Z,13.8
2017-10-02T21:11:40.464Z,13.7
2017-10-02T21:21:54.177Z,13.6
2017-10-02T21:32:07.811Z,13.9
2017-10-02T21:42:22.521Z,14.1
2017-10-02T21:52:35.880Z,14.1
2017-10-02T22:02:49.314Z,14.1
2017-10-02T22:13:03.449Z,14.2
2017-10-02T22:23:18.204Z,14.2
2017-10-02T22:33:32.205Z,14.2
2017-10-02T22:43:46.472Z,14.2
2017-10-02T22:54:00.543Z,14.2
2017-10-02T23:04:14.341Z,14.4
2017-10-02T23:14:28.210Z,14.4
2017-10-02T23:24:38.469Z,14.4
2017-10-02T23:34:51.930Z,14.3
2017-10-02T23:45:06.463Z,14.2
2017-10-02T23:55:20.845Z,13.6
